createdAt,value
2018-07-22T00:00:30.223Z,22.80
2018-07-22T00:02:58.247Z,21.73
2018-07-22T00:05:26.255Z,24.40
2018-07-22T00:07:54.270Z,27.83
2018-07-22T00:10:29.669Z,23.47
2018-07-22T00:12:58.466Z,23.57
2018-07-22T00:15:26.498Z,23.80
2018-07-22T00:17:54.537Z,21.13
2018-07-22T00:20:22.556Z,27.73
2018-07-22T00:22:50.637Z,28.83
2018-07-22T00:25:18.634Z,32.60
2018-07-22T00:27:47.192Z,24.00
2018-07-22T00:30:15.221Z,27.80
2018-07-22T00:32:43.245Z,23.50
2018-07-22T00:35:12.055Z,29.27
2018-07-22T00:37:40.806Z,23.10
2018-07-22T00:40:10.319Z,23.93
2018-07-22T00:42:38.451Z,22.20
2018-07-22T00:45:07.226Z,19.63
2018-07-22T00:47:35.231Z,18.27
2018-07-22T00:50:03.314Z,21.90
2018-07-22T00:52:31.299Z,20.37
2018-07-22T00:54:59.366Z,27.57
2018-07-22T00:57:27.378Z,21.53
2018-07-22T00:59:55.489Z,22.07
2018-07-22T01:02:23.522Z,24.70
2018-07-22T01:04:51.534Z,22.80
2018-07-22T01:07:19.556Z,28.63
2018-07-22T01:09:47.597Z,24.47
2018-07-22T01:12:15.607Z,21.57
2018-07-22T01:14:43.627Z,23.23
2018-07-22T01:17:11.673Z,23.10
2018-07-22T01:19:39.688Z,28.17
2018-07-22T01:22:07.699Z,24.10
2018-07-22T01:24:35.706Z,31.63
2018-07-22T01:27:03.719Z,33.40
2018-07-22T01:29:31.730Z,33.27
2018-07-22T01:31:59.728Z,25.97
2018-07-22T01:34:27.726Z,24.00
2018-07-22T01:36:55.744Z,29.20
2018-07-22T01:39:23.789Z,29.87
2018-07-22T01:41:51.848Z,26.90
2018-07-22T01:44:19.856Z,28.03
2018-07-22T01:46:47.913Z,30.53
2018-07-22T01:49:15.906Z,22.00
2018-07-22T01:51:43.928Z,27.50
2018-07-22T01:54:11.928Z,30.80
2018-07-22T01:56:39.970Z,29.33
2018-07-22T01:59:08.026Z,36.17
2018-07-22T02:01:36.144Z,31.60
2018-07-22T02:04:04.144Z,29.47
2018-07-22T02:06:32.158Z,32.80
2018-07-22T02:09:00.159Z,52.37
2018-07-22T02:11:28.183Z,38.40
2018-07-22T02:13:56.210Z,31.00
2018-07-22T02:16:24.231Z,34.53
2018-07-22T02:18:52.263Z,36.57
2018-07-22T02:21:20.326Z,38.53
2018-07-22T02:23:48.336Z,37.80
2018-07-22T02:26:16.381Z,37.40
2018-07-22T02:28:44.386Z,39.00
2018-07-22T02:31:12.405Z,35.87
2018-07-22T02:33:40.446Z,41.17
2018-07-22T02:36:08.583Z,38.53
2018-07-22T02:38:36.621Z,43.37
2018-07-22T02:41:04.695Z,35.30
2018-07-22T02:43:32.698Z,41.80
2018-07-22T02:46:00.743Z,39.53
2018-07-22T02:48:28.742Z,42.50
2018-07-22T02:50:56.747Z,35.23
2018-07-22T02:53:24.797Z,46.23
2018-07-22T02:55:52.840Z,38.10
2018-07-22T02:58:20.868Z,37.87
2018-07-22T03:00:48.854Z,37.13
2018-07-22T03:03:16.906Z,35.67
2018-07-22T03:05:44.866Z,38.80
2018-07-22T03:08:12.873Z,38.40
2018-07-22T03:10:40.866Z,41.43
2018-07-22T03:13:08.867Z,46.10
2018-07-22T03:15:36.870Z,42.10
2018-07-22T03:18:04.973Z,39.17
2018-07-22T03:20:32.959Z,34.97
2018-07-22T03:23:00.951Z,35.20
2018-07-22T03:25:28.945Z,34.13
2018-07-22T03:27:56.959Z,39.33
2018-07-22T03:30:24.959Z,35.70
2018-07-22T03:32:52.967Z,37.73
2018-07-22T03:35:20.982Z,39.40
2018-07-22T03:37:49.003Z,42.83
2018-07-22T03:40:17.003Z,45.80
2018-07-22T03:42:45.018Z,42.70
2018-07-22T03:45:13.010Z,41.03
2018-07-22T03:47:41.006Z,50.40
2018-07-22T03:50:08.998Z,42.93
2018-07-22T03:52:36.990Z,42.57
2018-07-22T03:55:04.990Z,46.10
2018-07-22T03:57:32.994Z,46.60
2018-07-22T04:00:00.985Z,42.17
2018-07-22T04:02:29.003Z,43.43
2018-07-22T04:04:57.016Z,51.37
2018-07-22T04:07:25.011Z,41.23
2018-07-22T04:09:53.011Z,39.30
2018-07-22T04:12:21.019Z,40.60
2018-07-22T04:14:49.015Z,39.70
2018-07-22T04:17:17.018Z,39.27
2018-07-22T04:19:45.010Z,45.40
2018-07-22T04:22:13.010Z,47.83
2018-07-22T04:24:41.003Z,43.57
2018-07-22T04:27:09.033Z,42.10
2018-07-22T04:29:37.021Z,45.47
2018-07-22T04:32:05.089Z,48.20
2018-07-22T04:34:33.083Z,46.27
2018-07-22T04:37:01.077Z,43.30
2018-07-22T04:39:29.079Z,53.10
2018-07-22T04:41:57.075Z,37.60
2018-07-22T04:44:25.078Z,43.13
2018-07-22T04:46:53.082Z,45.53
2018-07-22T04:49:21.095Z,40.90
2018-07-22T04:51:49.095Z,40.40
2018-07-22T04:54:17.091Z,43.13
2018-07-22T04:56:45.084Z,40.60
2018-07-22T04:59:13.103Z,41.23
2018-07-22T05:01:41.130Z,35.23
2018-07-22T05:04:09.141Z,29.10
2018-07-22T05:06:37.167Z,43.07
2018-07-22T05:09:07.274Z,33.43
2018-07-22T05:11:35.274Z,29.17
2018-07-22T05:14:03.331Z,26.80
2018-07-22T05:16:31.338Z,26.90
2018-07-22T05:18:59.372Z,47.83
2018-07-22T05:21:27.490Z,27.50
2018-07-22T05:23:55.506Z,26.93
2018-07-22T05:26:23.515Z,20.83
2018-07-22T05:28:51.542Z,24.83
2018-07-22T05:31:19.561Z,23.47
2018-07-22T05:33:47.567Z,29.83
2018-07-22T05:36:15.563Z,28.57
2018-07-22T05:38:43.567Z,28.23
2018-07-22T05:41:11.566Z,26.33
2018-07-22T05:43:39.583Z,27.50
2018-07-22T05:46:07.572Z,35.33
2018-07-22T05:48:35.844Z,16.53
2018-07-22T05:51:03.830Z,17.27
2018-07-22T05:53:31.827Z,20.23
2018-07-22T05:55:59.866Z,18.70
2018-07-22T05:58:27.870Z,15.60
2018-07-22T06:00:55.866Z,15.13
2018-07-22T06:03:23.891Z,20.53
2018-07-22T06:05:51.882Z,17.77
2018-07-22T06:08:19.891Z,16.07
2018-07-22T06:10:47.903Z,22.83
2018-07-22T06:13:15.898Z,18.43
2018-07-22T06:15:43.914Z,18.43
2018-07-22T06:18:11.959Z,20.70
2018-07-22T06:20:39.990Z,23.00
2018-07-22T06:23:07.998Z,35.57
2018-07-22T06:25:36.007Z,25.17
2018-07-22T06:28:04.054Z,22.17
2018-07-22T06:30:32.071Z,20.93
2018-07-22T06:33:00.078Z,23.43
2018-07-22T06:35:28.087Z,20.03
2018-07-22T06:37:56.109Z,22.33
2018-07-22T06:40:24.112Z,18.43
2018-07-22T06:42:52.135Z,21.10
2018-07-22T06:45:20.144Z,22.13
2018-07-22T06:47:48.142Z,27.53
2018-07-22T06:50:16.144Z,27.10
2018-07-22T06:52:44.151Z,27.97
2018-07-22T06:55:12.151Z,28.60
2018-07-22T06:57:40.143Z,26.57
2018-07-22T07:00:08.137Z,21.73
2018-07-22T07:02:36.159Z,35.20
2018-07-22T07:05:04.480Z,32.17
2018-07-22T07:07:32.430Z,31.10
2018-07-22T07:10:00.487Z,33.03
2018-07-22T07:12:28.513Z,40.63
2018-07-22T07:14:56.519Z,47.63
2018-07-22T07:17:24.519Z,33.17
2018-07-22T07:19:52.556Z,34.80
2018-07-22T07:22:21.887Z,38.30
2018-07-22T07:24:50.167Z,35.93
2018-07-22T07:27:18.229Z,34.50
2018-07-22T07:29:46.300Z,27.57
2018-07-22T07:32:14.404Z,22.30
2018-07-22T07:34:42.533Z,19.87
2018-07-22T07:37:10.632Z,20.97
2018-07-22T07:39:38.867Z,17.77
2018-07-22T07:42:06.962Z,22.40
2018-07-22T07:44:34.988Z,19.83
2018-07-22T07:47:04.171Z,17.80
2018-07-22T07:49:32.355Z,17.63
2018-07-22T07:52:00.396Z,18.30
2018-07-22T07:54:28.523Z,16.20
2018-07-22T07:56:56.901Z,16.07
2018-07-22T07:59:24.964Z,14.50
2018-07-22T08:01:52.995Z,17.07
2018-07-22T08:04:21.131Z,19.37
2018-07-22T08:06:49.235Z,17.40
2018-07-22T08:09:17.256Z,17.37
2018-07-22T08:11:45.352Z,17.90
2018-07-22T08:14:13.392Z,20.23
2018-07-22T08:16:41.497Z,22.77
2018-07-22T08:19:09.582Z,23.73
2018-07-22T08:21:37.650Z,19.50
2018-07-22T08:24:05.893Z,19.67
2018-07-22T08:26:33.933Z,20.60
2018-07-22T08:29:24.038Z,20.97
2018-07-22T08:31:52.060Z,22.93
2018-07-22T08:34:20.425Z,19.97
2018-07-22T08:36:48.889Z,23.13
2018-07-22T08:39:18.384Z,21.13
2018-07-22T08:41:46.569Z,21.23
2018-07-22T08:44:14.641Z,20.77
2018-07-22T08:46:42.993Z,17.47
2018-07-22T08:49:11.011Z,16.30
2018-07-22T08:51:39.043Z,27.07
2018-07-22T08:54:07.261Z,25.53
2018-07-22T08:56:35.359Z,18.93
2018-07-22T08:59:03.757Z,17.20
2018-07-22T09:01:31.910Z,16.17
2018-07-22T09:03:59.986Z,17.63
2018-07-22T09:06:28.419Z,15.03
2018-07-22T09:08:56.469Z,13.23
2018-07-22T09:11:25.050Z,14.50
2018-07-22T09:13:53.272Z,17.00
2018-07-22T09:16:21.405Z,12.73
2018-07-22T09:18:49.527Z,17.27
2018-07-22T09:21:17.636Z,13.20
2018-07-22T09:23:46.791Z,13.43
2018-07-22T09:26:15.132Z,12.03
2018-07-22T09:28:43.256Z,14.20
2018-07-22T09:31:11.303Z,13.10
2018-07-22T09:33:39.344Z,13.90
2018-07-22T09:36:07.520Z,14.33
2018-07-22T09:38:35.465Z,11.23
2018-07-22T09:41:03.555Z,12.47
2018-07-22T09:43:31.600Z,16.10
2018-07-22T09:45:59.798Z,15.43
2018-07-22T09:48:27.964Z,14.80
2018-07-22T09:50:56.182Z,15.40
2018-07-22T09:53:24.442Z,14.53
2018-07-22T09:55:55.238Z,12.67
2018-07-22T09:58:23.453Z,12.90
2018-07-22T10:00:55.603Z,18.93
2018-07-22T10:03:24.863Z,16.47
2018-07-22T10:05:53.132Z,15.47
2018-07-22T10:08:21.392Z,18.60
2018-07-22T10:10:51.548Z,15.87
2018-07-22T10:13:20.029Z,18.47
2018-07-22T10:16:02.019Z,18.77
2018-07-22T10:18:30.718Z,18.77
2018-07-22T10:20:59.376Z,22.60
2018-07-22T10:23:28.414Z,17.87
2018-07-22T10:25:56.852Z,16.87
2018-07-22T10:28:25.825Z,19.77
2018-07-22T10:30:54.802Z,21.83
2018-07-22T10:33:22.927Z,18.17
2018-07-22T10:35:51.904Z,20.10
2018-07-22T10:38:20.110Z,19.67
2018-07-22T10:40:48.432Z,19.77
2018-07-22T10:43:16.652Z,21.87
2018-07-22T10:45:45.568Z,17.47
2018-07-22T10:48:13.719Z,20.40
2018-07-22T10:50:42.462Z,17.57
2018-07-22T10:53:10.646Z,18.53
2018-07-22T10:55:38.699Z,21.53
2018-07-22T10:58:06.943Z,19.03
2018-07-22T11:00:35.508Z,18.93
2018-07-22T11:03:05.541Z,20.80
2018-07-22T11:05:33.596Z,14.93
2018-07-22T11:08:01.827Z,14.63
2018-07-22T11:10:29.913Z,18.40
2018-07-22T11:12:58.600Z,20.73
2018-07-22T11:15:26.784Z,18.00
2018-07-22T11:17:54.928Z,20.37
2018-07-22T11:20:23.416Z,25.13
2018-07-22T11:22:52.463Z,20.47
2018-07-22T11:25:20.609Z,22.90
2018-07-22T11:27:48.652Z,23.13
2018-07-22T11:30:16.763Z,21.53
2018-07-22T11:32:44.905Z,26.83
2018-07-22T11:35:13.172Z,30.17
2018-07-22T11:37:41.203Z,30.90
2018-07-22T11:40:09.302Z,14.67
2018-07-22T11:42:37.601Z,13.37
2018-07-22T11:45:05.758Z,11.90
2018-07-22T11:47:34.140Z,12.53
2018-07-22T11:50:03.078Z,10.83
2018-07-22T11:52:31.260Z,10.60
2018-07-22T11:54:59.302Z,11.50
2018-07-22T11:57:27.386Z,11.50
2018-07-22T11:59:55.688Z,10.43
2018-07-22T12:02:24.482Z,12.43
2018-07-22T12:04:52.575Z,24.00
2018-07-22T12:07:21.024Z,31.17
2018-07-22T12:09:49.197Z,21.03
2018-07-22T12:12:17.452Z,10.90
2018-07-22T12:14:46.498Z,10.07
2018-07-22T12:17:14.942Z,14.50
2018-07-22T12:19:43.220Z,17.53
2018-07-22T12:22:11.482Z,10.13
2018-07-22T12:24:39.536Z,10.83
2018-07-22T12:27:08.647Z,11.10
2018-07-22T12:29:36.842Z,15.50
2018-07-22T12:32:04.910Z,13.23
2018-07-22T12:34:34.439Z,11.23
2018-07-22T12:37:02.860Z,10.67
2018-07-22T12:39:30.956Z,11.10
2018-07-22T12:42:00.291Z,18.57
2018-07-22T12:44:29.043Z,8.50
2018-07-22T12:46:57.319Z,13.93
2018-07-22T12:49:25.636Z,12.13
2018-07-22T12:51:54.245Z,9.17
2018-07-22T12:54:23.002Z,9.80
2018-07-22T12:56:52.857Z,10.80
2018-07-22T12:59:20.981Z,13.13
2018-07-22T13:01:49.086Z,16.37
2018-07-22T13:04:17.468Z,26.77
2018-07-22T13:06:45.646Z,14.80
2018-07-22T13:09:13.778Z,9.47
2018-07-22T13:11:42.125Z,9.00
2018-07-22T13:14:10.341Z,14.30
2018-07-22T13:16:38.455Z,11.53
2018-07-22T13:19:06.741Z,11.93
2018-07-22T13:21:35.009Z,12.50
2018-07-22T13:24:03.265Z,10.70
2018-07-22T13:26:31.576Z,13.30
2018-07-22T13:28:59.928Z,10.50
2018-07-22T13:31:28.507Z,10.93
2018-07-22T13:33:56.839Z,25.07
2018-07-22T13:36:24.889Z,12.50
2018-07-22T13:38:53.541Z,14.17
2018-07-22T13:41:21.857Z,12.47
2018-07-22T13:43:50.297Z,12.63
2018-07-22T13:46:19.122Z,16.17
2018-07-22T13:48:47.379Z,15.03
2018-07-22T13:51:15.720Z,15.63
2018-07-22T13:53:43.856Z,16.87
2018-07-22T13:56:12.083Z,16.03
2018-07-22T13:58:40.941Z,15.13
2018-07-22T14:01:09.226Z,11.30
2018-07-22T14:03:37.227Z,12.50
2018-07-22T14:06:05.532Z,11.20
2018-07-22T14:08:33.854Z,11.60
2018-07-22T14:11:03.072Z,10.30
2018-07-22T14:13:31.307Z,9.00
2018-07-22T14:16:00.383Z,8.13
2018-07-22T14:18:28.505Z,10.37
2018-07-22T14:20:56.758Z,10.57
2018-07-22T14:23:25.057Z,9.30
2018-07-22T14:25:53.173Z,8.80
2018-07-22T14:28:21.260Z,9.67
2018-07-22T14:30:49.602Z,9.57
2018-07-22T14:33:17.779Z,10.33
2018-07-22T14:35:45.908Z,9.80
2018-07-22T14:38:20.444Z,11.23
2018-07-22T14:40:49.548Z,9.20
2018-07-22T14:43:17.576Z,8.43
2018-07-22T14:45:45.707Z,9.67
2018-07-22T14:48:13.766Z,8.67
2018-07-22T14:50:41.857Z,10.73
2018-07-22T14:53:09.932Z,9.00
2018-07-22T14:55:38.012Z,9.73
2018-07-22T14:58:06.155Z,8.53
2018-07-22T15:00:34.237Z,9.23
2018-07-22T15:03:02.248Z,9.20
2018-07-22T15:05:30.310Z,9.90
2018-07-22T15:07:58.320Z,9.83
2018-07-22T15:10:26.488Z,10.57
2018-07-22T15:12:54.533Z,10.13
2018-07-22T15:15:22.639Z,15.50
2018-07-22T15:17:50.694Z,13.10
2018-07-22T15:20:18.729Z,12.27
2018-07-22T15:22:46.762Z,12.17
2018-07-22T15:25:14.846Z,11.93
2018-07-22T15:27:43.051Z,11.37
2018-07-22T15:30:11.124Z,10.97
2018-07-22T15:32:39.138Z,10.80
2018-07-22T15:35:07.170Z,10.60
2018-07-22T15:37:35.214Z,10.70
2018-07-22T15:40:03.383Z,10.80
2018-07-22T15:42:31.410Z,12.00
2018-07-22T15:44:59.548Z,12.20
2018-07-22T15:47:27.615Z,12.50
2018-07-22T15:49:55.631Z,11.27
2018-07-22T15:52:23.679Z,10.50
2018-07-22T15:54:51.692Z,13.20
2018-07-22T15:57:19.764Z,11.37
2018-07-22T15:59:47.862Z,11.47
2018-07-22T16:02:15.942Z,11.50
2018-07-22T16:04:43.956Z,11.70
2018-07-22T16:07:11.994Z,11.53
2018-07-22T16:09:40.028Z,12.13
2018-07-22T16:12:08.104Z,11.93
2018-07-22T16:14:36.111Z,11.80
2018-07-22T16:17:04.204Z,13.17
2018-07-22T16:19:32.229Z,13.50
2018-07-22T16:22:00.263Z,14.47
2018-07-22T16:24:29.344Z,13.10
2018-07-22T16:27:03.669Z,13.93
2018-07-22T16:29:35.008Z,16.87
2018-07-22T16:32:03.080Z,16.00
2018-07-22T16:34:31.109Z,17.43
2018-07-22T16:36:59.298Z,26.77
2018-07-22T16:39:27.359Z,15.20
2018-07-22T16:41:55.442Z,15.50
2018-07-22T16:44:24.123Z,15.30
2018-07-22T16:46:52.199Z,16.17
2018-07-22T16:49:20.239Z,14.50
2018-07-22T16:51:48.364Z,21.33
2018-07-22T16:54:16.500Z,16.10
2018-07-22T16:56:44.569Z,13.67
2018-07-22T16:59:12.665Z,15.70
2018-07-22T17:01:40.699Z,13.23
2018-07-22T17:04:08.855Z,17.73
2018-07-22T17:06:36.894Z,14.03
2018-07-22T17:09:07.115Z,11.53
2018-07-22T17:11:35.443Z,11.83
2018-07-22T17:14:03.651Z,19.27
2018-07-22T17:16:31.750Z,13.43
2018-07-22T17:18:59.816Z,10.87
2018-07-22T17:21:28.292Z,11.20
2018-07-22T17:23:56.344Z,12.43
2018-07-22T17:26:24.554Z,10.50
2018-07-22T17:28:52.626Z,14.17
2018-07-22T17:31:21.691Z,11.40
2018-07-22T17:33:49.741Z,10.67
2018-07-22T17:36:17.902Z,9.73
2018-07-22T17:38:54.846Z,12.70
2018-07-22T17:41:22.935Z,10.83
2018-07-22T17:43:50.967Z,11.00
2018-07-22T17:46:19.020Z,11.10
2018-07-22T17:48:47.135Z,12.63
2018-07-22T17:51:15.254Z,13.30
2018-07-22T17:53:43.315Z,11.80
2018-07-22T17:56:11.395Z,16.30
2018-07-22T17:58:39.525Z,12.17
2018-07-22T18:01:07.587Z,19.30
2018-07-22T18:03:35.609Z,14.20
2018-07-22T18:06:03.643Z,12.13
2018-07-22T18:08:31.925Z,12.37
2018-07-22T18:11:00.082Z,12.73
2018-07-22T18:13:28.183Z,13.47
2018-07-22T18:15:56.277Z,13.87
2018-07-22T18:18:24.367Z,12.37
2018-07-22T18:20:52.398Z,13.30
2018-07-22T18:23:20.466Z,13.37
2018-07-22T18:25:48.520Z,13.17
2018-07-22T18:28:16.767Z,12.73
2018-07-22T18:30:45.287Z,16.83
2018-07-22T18:33:13.378Z,13.97
2018-07-22T18:35:41.459Z,13.50
2018-07-22T18:38:09.592Z,13.60
2018-07-22T18:40:37.740Z,18.00
2018-07-22T18:43:05.823Z,16.63
2018-07-22T18:45:33.955Z,18.17
2018-07-22T18:48:01.939Z,16.53
2018-07-22T18:50:29.980Z,14.07
2018-07-22T18:52:58.020Z,17.17
2018-07-22T18:55:26.151Z,14.50
2018-07-22T18:57:54.157Z,14.47
2018-07-22T19:00:22.247Z,13.60
2018-07-22T19:02:50.314Z,15.70
2018-07-22T19:05:18.359Z,21.83
2018-07-22T19:07:46.430Z,16.67
2018-07-22T19:10:14.570Z,14.77
2018-07-22T19:12:42.629Z,14.67
2018-07-22T19:15:10.656Z,13.73
2018-07-22T19:17:38.735Z,15.77
2018-07-22T19:20:07.803Z,16.33
2018-07-22T19:22:35.819Z,14.73
2018-07-22T19:25:08.529Z,14.13
2018-07-22T19:27:36.670Z,18.43
2018-07-22T19:30:04.719Z,14.00
2018-07-22T19:32:32.759Z,19.93
2018-07-22T19:35:00.966Z,13.77
2018-07-22T19:37:29.026Z,13.07
2018-07-22T19:39:57.115Z,20.20
2018-07-22T19:42:25.095Z,18.67
2018-07-22T19:44:53.155Z,12.73
2018-07-22T19:47:21.195Z,13.37
2018-07-22T19:49:49.195Z,15.57
2018-07-22T19:52:17.184Z,13.37
2018-07-22T19:54:45.253Z,12.40
2018-07-22T19:57:13.255Z,12.60
2018-07-22T19:59:41.279Z,12.90
2018-07-22T20:02:09.272Z,12.30
2018-07-22T20:04:37.307Z,12.10
2018-07-22T20:07:05.331Z,14.53
2018-07-22T20:09:33.424Z,15.53
2018-07-22T20:12:01.344Z,10.00
2018-07-22T20:14:29.343Z,14.17
2018-07-22T20:16:57.347Z,12.23
2018-07-22T20:19:25.451Z,12.70
2018-07-22T20:21:53.498Z,12.23
2018-07-22T20:24:21.541Z,13.57
2018-07-22T20:26:49.498Z,13.57
2018-07-22T20:29:17.536Z,16.00
2018-07-22T20:31:45.655Z,15.93
2018-07-22T20:34:13.622Z,16.10
2018-07-22T20:36:41.887Z,17.33
2018-07-22T20:39:10.829Z,14.60
2018-07-22T20:41:39.558Z,13.37
2018-07-22T20:44:07.546Z,19.50
2018-07-22T20:46:35.563Z,14.30
2018-07-22T20:49:03.554Z,14.53
2018-07-22T20:51:31.568Z,13.93
2018-07-22T20:53:59.552Z,14.50
2018-07-22T20:56:27.543Z,15.97
2018-07-22T20:58:55.539Z,12.83
2018-07-22T21:01:23.538Z,14.97
2018-07-22T21:03:51.535Z,12.73
2018-07-22T21:06:19.530Z,14.73
2018-07-22T21:08:47.509Z,15.30
2018-07-22T21:11:15.987Z,15.80
2018-07-22T21:13:43.985Z,14.27
2018-07-22T21:16:11.977Z,15.33
2018-07-22T21:18:39.982Z,16.90
2018-07-22T21:21:08.046Z,13.60
2018-07-22T21:23:35.975Z,17.43
2018-07-22T21:26:03.975Z,14.90
2018-07-22T21:28:31.958Z,13.37
2018-07-22T21:30:59.958Z,19.30
2018-07-22T21:33:27.953Z,15.10
2018-07-22T21:35:55.947Z,17.37
2018-07-22T21:38:23.938Z,16.63
2018-07-22T21:40:51.950Z,15.40
2018-07-22T21:43:19.945Z,14.43
2018-07-22T21:45:47.948Z,14.80
2018-07-22T21:48:15.939Z,14.73
2018-07-22T21:50:43.947Z,22.23
2018-07-22T21:53:11.946Z,16.23
2018-07-22T21:55:39.947Z,16.20
2018-07-22T21:58:08.179Z,16.80
2018-07-22T22:00:41.647Z,16.60
2018-07-22T22:03:09.641Z,17.63
2018-07-22T22:05:37.648Z,17.87
2018-07-22T22:08:05.661Z,16.60
2018-07-22T22:10:33.658Z,18.00
2018-07-22T22:13:01.672Z,19.00
2018-07-22T22:15:30.545Z,15.77
2018-07-22T22:17:59.760Z,17.87
2018-07-22T22:20:28.219Z,15.40
2018-07-22T22:22:56.334Z,15.73
2018-07-22T22:25:24.336Z,14.20
2018-07-22T22:27:52.352Z,17.73
2018-07-22T22:30:20.350Z,15.33
2018-07-22T22:32:48.483Z,15.93
2018-07-22T22:35:16.503Z,18.40
2018-07-22T22:37:45.055Z,18.07
2018-07-22T22:40:13.931Z,18.37
2018-07-22T22:42:43.127Z,19.23
2018-07-22T22:45:11.122Z,17.33
2018-07-22T22:47:39.127Z,16.57
2018-07-22T22:50:07.189Z,16.53
2018-07-22T22:52:35.205Z,21.07
2018-07-22T22:55:03.318Z,22.57
2018-07-22T22:57:31.328Z,21.50
2018-07-22T22:59:59.334Z,17.40
2018-07-22T23:02:31.675Z,20.77
2018-07-22T23:04:59.655Z,22.50
2018-07-22T23:07:27.663Z,25.33
2018-07-22T23:09:55.651Z,23.20
2018-07-22T23:12:23.654Z,21.23
2018-07-22T23:14:51.651Z,22.17
2018-07-22T23:17:19.656Z,22.83
2018-07-22T23:19:47.650Z,22.40
2018-07-22T23:22:15.649Z,23.07
2018-07-22T23:24:43.634Z,24.77
2018-07-22T23:27:11.643Z,19.83
2018-07-22T23:29:39.625Z,17.30
2018-07-22T23:32:07.628Z,15.53
2018-07-22T23:34:36.450Z,16.60
2018-07-22T23:37:04.454Z,17.50
2018-07-22T23:39:32.456Z,22.30
2018-07-22T23:42:00.454Z,16.33
2018-07-22T23:44:28.446Z,14.93
2018-07-22T23:46:56.450Z,17.50
2018-07-22T23:49:24.455Z,19.83
2018-07-22T23:51:52.446Z,19.03
2018-07-22T23:54:20.443Z,15.30
2018-07-22T23:56:48.422Z,16.67
2018-07-22T23:59:16.426Z,18.13
